Terminal Aerodrome Forecast
Issued by NWS Wilmington, NC

Current Version | Previous Version | Graphics & Text | Print | Product List | Glossary Off
Versions: 1 2 3 4 5 6 7 8 9 10 11 12 13 14 15 16 17 18 19 20

000
FTUS42 KILM 211720
TAFLBT
TAF
KLBT 211720Z 2118/2218 21006KT P6SM SKC
     FM221400 22007KT P6SM FEW060
     FM221600 22009G18KT P6SM SCT110=

USA.gov is the U.S. government's official web portal to all federal, state and local government web resources and services.